createdAt,value
2023-03-18T00:01:42.442Z,14.95
2023-03-18T00:04:13.199Z,12.50
2023-03-18T00:06:41.720Z,18.05
2023-03-18T00:09:12.350Z,15.27
2023-03-18T00:11:41.783Z,15.15
2023-03-18T00:14:11.158Z,14.95
2023-03-18T00:16:40.008Z,15.13
2023-03-18T00:19:08.488Z,17.35
2023-03-18T00:21:38.557Z,13.90
2023-03-18T00:24:07.203Z,15.98
2023-03-18T00:26:36.412Z,16.65
2023-03-18T00:29:05.042Z,16.75
2023-03-18T00:31:33.732Z,16.23
2023-03-18T00:34:02.160Z,14.60
2023-03-18T00:36:31.075Z,12.32
2023-03-18T00:39:03.526Z,12.38
2023-03-18T00:41:36.446Z,15.05
2023-03-18T00:44:06.211Z,15.15
2023-03-18T00:46:35.806Z,16.92
2023-03-18T00:49:06.476Z,15.95
2023-03-18T00:51:36.349Z,19.73
2023-03-18T00:54:09.952Z,14.75
2023-03-18T00:56:38.967Z,17.17
2023-03-18T00:59:08.069Z,23.73
2023-03-18T01:01:37.178Z,13.13
2023-03-18T01:04:06.197Z,19.45
2023-03-18T01:06:37.380Z,15.02
2023-03-18T01:09:06.716Z,22.42
2023-03-18T01:11:36.625Z,13.77
2023-03-18T01:14:05.086Z,11.93
2023-03-18T01:16:33.950Z,13.98
2023-03-18T01:19:02.464Z,16.63
2023-03-18T01:21:32.029Z,13.63
2023-03-18T01:24:04.399Z,16.13
2023-03-18T01:26:33.224Z,13.73
2023-03-18T01:29:03.922Z,19.00
2023-03-18T01:31:34.571Z,14.05
2023-03-18T01:34:07.827Z,15.25
2023-03-18T01:36:46.278Z,14.65
2023-03-18T01:39:15.460Z,15.90
2023-03-18T01:41:44.699Z,17.48
2023-03-18T01:44:20.696Z,12.05
2023-03-18T01:46:52.320Z,12.93
2023-03-18T01:49:24.427Z,14.43
2023-03-18T01:51:56.466Z,14.85
2023-03-18T01:54:27.741Z,16.52
2023-03-18T01:56:56.740Z,16.08
2023-03-18T01:59:28.670Z,14.48
2023-03-18T02:02:01.596Z,15.00
2023-03-18T02:04:33.957Z,16.85
2023-03-18T02:07:02.692Z,19.67
2023-03-18T02:09:31.271Z,14.18
2023-03-18T02:12:03.142Z,21.00
2023-03-18T02:14:33.984Z,13.57
2023-03-18T02:17:03.867Z,14.02
2023-03-18T02:19:41.616Z,17.92
2023-03-18T02:22:16.172Z,15.52
2023-03-18T02:24:48.572Z,17.60
2023-03-18T02:27:21.577Z,14.45
2023-03-18T02:29:50.950Z,14.95
2023-03-18T02:32:22.920Z,14.02
2023-03-18T02:34:51.698Z,14.63
2023-03-18T02:37:20.349Z,13.85
2023-03-18T02:39:49.177Z,13.95
2023-03-18T02:42:18.276Z,18.05
2023-03-18T02:44:53.590Z,12.18
2023-03-18T02:47:34.329Z,14.35
2023-03-18T02:50:04.635Z,12.90
2023-03-18T02:52:33.095Z,12.77
2023-03-18T02:55:01.895Z,13.85
2023-03-18T02:57:31.839Z,12.30
2023-03-18T03:00:01.734Z,14.05
2023-03-18T03:02:31.139Z,10.52
2023-03-18T03:04:59.872Z,18.52
2023-03-18T03:07:28.862Z,13.15
2023-03-18T03:10:03.068Z,12.68
2023-03-18T03:12:32.199Z,14.52
2023-03-18T03:15:02.972Z,13.23
2023-03-18T03:17:33.646Z,15.52
2023-03-18T03:20:03.547Z,15.93
2023-03-18T03:22:32.060Z,19.38
2023-03-18T03:25:01.134Z,15.90
2023-03-18T03:27:29.690Z,14.32
2023-03-18T03:29:58.269Z,17.60
2023-03-18T03:32:29.008Z,16.60
2023-03-18T03:34:57.514Z,14.05
2023-03-18T03:37:26.034Z,13.82
2023-03-18T03:39:55.819Z,13.52
2023-03-18T03:42:25.425Z,11.60
2023-03-18T03:44:53.979Z,14.60
2023-03-18T03:47:22.588Z,12.05
2023-03-18T03:49:53.456Z,13.50
2023-03-18T03:52:23.105Z,14.25
2023-03-18T03:54:52.482Z,13.25
2023-03-18T03:57:21.172Z,14.38
2023-03-18T03:59:49.805Z,14.27
2023-03-18T04:02:23.792Z,16.88
2023-03-18T04:04:54.024Z,14.20
2023-03-18T04:07:29.894Z,14.35
2023-03-18T04:09:58.468Z,14.65
2023-03-18T04:12:26.955Z,16.35
2023-03-18T04:15:00.146Z,12.23
2023-03-18T04:17:29.336Z,14.23
2023-03-18T04:20:01.558Z,13.88
2023-03-18T04:22:34.159Z,17.70
2023-03-18T04:25:13.922Z,17.20
2023-03-18T04:27:43.350Z,14.07
2023-03-18T04:30:15.016Z,15.57
2023-03-18T04:32:57.382Z,14.38
2023-03-18T04:35:28.154Z,14.90
2023-03-18T04:37:57.430Z,12.82
2023-03-18T04:40:29.228Z,15.02
2023-03-18T04:42:58.201Z,13.23
2023-03-18T04:45:29.530Z,15.70
2023-03-18T04:48:01.672Z,17.83
2023-03-18T04:50:35.701Z,16.50
2023-03-18T04:53:05.352Z,11.18
2023-03-18T04:55:35.246Z,15.80
2023-03-18T04:58:05.745Z,14.63
2023-03-18T05:00:40.630Z,15.55
2023-03-18T05:03:23.608Z,16.35
2023-03-18T05:05:53.419Z,15.65
2023-03-18T05:08:28.054Z,16.98
2023-03-18T05:10:56.948Z,13.25
2023-03-18T05:13:25.545Z,14.50
2023-03-18T05:15:55.000Z,16.15
2023-03-18T05:18:23.785Z,12.07
2023-03-18T05:20:55.816Z,15.38
2023-03-18T05:23:27.048Z,13.93
2023-03-18T05:25:57.753Z,15.55
2023-03-18T05:28:28.571Z,16.35
2023-03-18T05:31:12.214Z,13.52
2023-03-18T05:33:43.094Z,19.85
2023-03-18T05:36:15.799Z,17.00
2023-03-18T05:38:56.019Z,14.25
2023-03-18T05:41:25.755Z,18.27
2023-03-18T05:43:54.992Z,16.95
2023-03-18T05:46:23.900Z,16.00
2023-03-18T05:49:04.577Z,13.65
2023-03-18T05:51:44.821Z,13.75
2023-03-18T05:54:18.167Z,16.70
2023-03-18T05:56:47.127Z,14.23
2023-03-18T05:59:17.393Z,16.75
2023-03-18T06:01:49.064Z,16.85
2023-03-18T06:04:19.370Z,14.38
2023-03-18T06:06:49.748Z,22.08
2023-03-18T06:09:19.027Z,15.45
2023-03-18T06:11:48.266Z,19.80
2023-03-18T06:14:19.471Z,14.57
2023-03-18T06:16:48.200Z,18.33
2023-03-18T06:19:16.737Z,18.10
2023-03-18T06:21:45.145Z,19.23
2023-03-18T06:24:16.060Z,16.02
2023-03-18T06:26:44.643Z,15.00
2023-03-18T06:29:13.299Z,18.20
2023-03-18T06:31:41.755Z,15.15
2023-03-18T06:34:13.014Z,20.30
2023-03-18T06:36:42.125Z,19.77
2023-03-18T06:39:18.012Z,13.68
2023-03-18T06:41:48.581Z,16.93
2023-03-18T06:44:31.056Z,23.95
2023-03-18T06:47:07.193Z,18.77
2023-03-18T06:49:39.156Z,21.20
2023-03-18T06:52:14.167Z,20.05
2023-03-18T06:54:47.147Z,21.23
2023-03-18T06:57:17.902Z,19.08
2023-03-18T06:59:46.878Z,18.95
2023-03-18T07:02:16.420Z,19.92
2023-03-18T07:04:48.223Z,22.27
2023-03-18T07:07:16.978Z,23.77
2023-03-18T07:09:47.119Z,24.90
2023-03-18T07:12:16.499Z,18.02
2023-03-18T07:14:45.421Z,23.80
2023-03-18T07:17:14.433Z,19.13
2023-03-18T07:19:43.707Z,16.10
2023-03-18T07:22:12.473Z,21.15
2023-03-18T07:24:40.906Z,14.10
2023-03-18T07:27:10.864Z,14.90
2023-03-18T07:29:39.329Z,19.25
2023-03-18T07:32:08.188Z,18.08
2023-03-18T07:34:36.921Z,20.38
2023-03-18T07:37:05.384Z,17.92
2023-03-18T07:39:33.978Z,16.48
2023-03-18T07:42:02.922Z,19.05
2023-03-18T07:44:33.672Z,19.13
2023-03-18T07:47:02.354Z,19.85
2023-03-18T07:49:31.870Z,17.83
2023-03-18T07:52:00.537Z,23.00
2023-03-18T07:54:29.024Z,17.58
2023-03-18T07:56:58.986Z,19.77
2023-03-18T07:59:27.636Z,21.25
2023-03-18T08:01:58.239Z,14.68
2023-03-18T08:04:26.835Z,16.83
2023-03-18T08:06:55.413Z,18.05
2023-03-18T08:09:23.927Z,16.27
2023-03-18T08:11:52.644Z,20.70
2023-03-18T08:14:21.261Z,22.08
2023-03-18T08:16:49.778Z,19.67
2023-03-18T08:19:19.947Z,19.70
2023-03-18T08:21:49.734Z,17.23
2023-03-18T08:24:18.909Z,18.30
2023-03-18T08:26:47.362Z,17.92
2023-03-18T08:29:15.838Z,17.73
2023-03-18T08:31:44.579Z,17.38
2023-03-18T08:34:14.155Z,15.60
2023-03-18T08:36:45.202Z,18.02
2023-03-18T08:39:14.524Z,21.52
2023-03-18T08:41:45.694Z,22.02
2023-03-18T08:44:14.245Z,19.92
2023-03-18T08:46:45.794Z,15.68
2023-03-18T08:49:15.091Z,12.35
2023-03-18T08:51:45.044Z,19.02
2023-03-18T08:54:13.555Z,18.27
2023-03-18T08:56:42.521Z,16.58
2023-03-18T08:59:11.127Z,15.48
2023-03-18T09:01:39.964Z,19.05
2023-03-18T09:04:09.626Z,16.98
2023-03-18T09:06:38.040Z,15.07
2023-03-18T09:09:08.126Z,16.83
2023-03-18T09:11:37.344Z,18.92
2023-03-18T09:14:08.214Z,19.83
2023-03-18T09:16:37.715Z,16.90
2023-03-18T09:19:06.278Z,27.08
2023-03-18T09:21:34.837Z,17.42
2023-03-18T09:24:07.031Z,13.40
2023-03-18T09:26:38.676Z,19.15
2023-03-18T09:29:07.364Z,15.20
2023-03-18T09:31:36.056Z,15.70
2023-03-18T09:34:04.551Z,14.00
2023-03-18T09:36:33.588Z,16.33
2023-03-18T09:39:02.136Z,14.30
2023-03-18T09:41:34.984Z,14.77
2023-03-18T09:46:41.529Z,16.77
2023-03-18T09:49:18.660Z,13.45
2023-03-18T09:51:52.282Z,14.38
2023-03-18T09:54:26.361Z,15.05
2023-03-18T09:56:55.460Z,17.45
2023-03-18T09:59:26.639Z,20.67
2023-03-18T10:01:57.466Z,12.45
2023-03-18T10:04:27.406Z,17.13
2023-03-18T10:07:00.095Z,12.52
2023-03-18T10:09:30.335Z,12.98
2023-03-18T10:12:02.101Z,12.50
2023-03-18T10:14:38.038Z,11.82
2023-03-18T10:17:14.030Z,13.32
2023-03-18T10:19:44.850Z,13.63
2023-03-18T10:22:21.292Z,16.38
2023-03-18T10:24:52.840Z,15.07
2023-03-18T10:27:24.357Z,14.70
2023-03-18T10:29:56.183Z,13.15
2023-03-18T10:32:48.618Z,12.97
2023-03-18T10:35:26.271Z,11.93
2023-03-18T10:37:57.555Z,12.52
2023-03-18T10:40:27.131Z,12.90
2023-03-18T10:42:56.573Z,14.40
2023-03-18T10:45:26.368Z,11.50
2023-03-18T10:47:59.345Z,13.55
2023-03-18T10:50:32.461Z,15.05
2023-03-18T10:53:05.233Z,14.70
2023-03-18T10:55:36.924Z,11.23
2023-03-18T10:58:15.917Z,15.27
2023-03-18T11:00:45.466Z,16.90
2023-03-18T11:03:22.484Z,13.52
2023-03-18T11:05:52.700Z,9.80
2023-03-18T11:08:39.878Z,17.48
2023-03-18T11:11:25.256Z,12.40
2023-03-18T11:13:55.878Z,12.57
2023-03-18T11:16:29.249Z,14.30
2023-03-18T11:18:59.716Z,15.18
2023-03-18T11:21:29.993Z,14.93
2023-03-18T11:24:10.362Z,14.88
2023-03-18T11:26:47.094Z,14.15
2023-03-18T11:29:19.542Z,17.88
2023-03-18T11:31:50.906Z,12.25
2023-03-18T11:34:21.126Z,15.48
2023-03-18T11:36:58.936Z,14.65
2023-03-18T11:39:28.755Z,13.85
2023-03-18T11:41:57.216Z,13.80
2023-03-18T11:44:31.057Z,12.13
2023-03-18T11:47:02.950Z,15.20
2023-03-18T11:49:33.131Z,13.70
2023-03-18T11:52:09.903Z,16.80
2023-03-18T11:54:49.022Z,15.18
2023-03-18T11:57:19.484Z,16.65
2023-03-18T11:59:58.519Z,11.48
2023-03-18T12:02:37.925Z,16.88
2023-03-18T12:05:23.463Z,16.75
2023-03-18T12:07:58.698Z,11.88
2023-03-18T12:10:30.094Z,13.98
2023-03-18T12:13:14.764Z,12.40
2023-03-18T12:15:48.762Z,11.60
2023-03-18T12:18:35.184Z,18.90
2023-03-18T12:21:11.953Z,11.23
2023-03-18T12:23:52.024Z,13.77
2023-03-18T12:26:23.313Z,14.63
2023-03-18T12:29:04.149Z,12.95
2023-03-18T12:31:41.710Z,11.65
2023-03-18T12:34:17.383Z,16.10
2023-03-18T12:36:55.949Z,12.52
2023-03-18T12:39:52.229Z,13.90
2023-03-18T12:42:25.193Z,10.82
2023-03-18T12:45:01.977Z,10.60
2023-03-18T12:47:36.881Z,14.95
2023-03-18T12:50:08.885Z,13.68
2023-03-18T12:52:41.158Z,11.68
2023-03-18T12:55:14.795Z,15.98
2023-03-18T12:57:47.583Z,11.63
2023-03-18T13:00:23.665Z,16.10
2023-03-18T13:03:06.910Z,11.98
2023-03-18T13:05:42.779Z,8.60
2023-03-18T13:08:32.684Z,18.95
2023-03-18T13:11:06.006Z,16.23
2023-03-18T13:13:36.769Z,10.88
2023-03-18T13:16:06.696Z,14.15
2023-03-18T13:18:38.016Z,14.32
2023-03-18T13:21:07.750Z,15.32
2023-03-18T13:23:51.094Z,10.75
2023-03-18T13:26:23.496Z,13.60
2023-03-18T13:28:58.876Z,17.00
2023-03-18T13:31:33.015Z,8.38
2023-03-18T13:34:09.594Z,8.32
2023-03-18T13:36:55.563Z,11.93
2023-03-18T13:39:30.782Z,13.80
2023-03-18T13:42:09.109Z,11.80
2023-03-18T13:44:41.775Z,12.30
2023-03-18T13:47:10.750Z,12.90
2023-03-18T13:49:41.218Z,11.50
2023-03-18T13:52:23.058Z,10.20
2023-03-18T13:54:51.757Z,13.23
2023-03-18T13:57:34.696Z,13.48
2023-03-18T14:02:45.975Z,9.38
2023-03-18T14:05:33.242Z,11.15
2023-03-18T14:08:05.223Z,18.17
2023-03-18T14:10:33.851Z,14.00
2023-03-18T14:13:27.446Z,12.80
2023-03-18T14:15:58.348Z,11.27
2023-03-18T14:18:28.584Z,14.38
2023-03-18T14:21:02.708Z,11.25
2023-03-18T14:23:37.012Z,14.13
2023-03-18T14:26:07.809Z,13.43
2023-03-18T14:28:49.045Z,14.23
2023-03-18T14:31:22.020Z,10.80
2023-03-18T14:34:01.931Z,17.38
2023-03-18T14:36:46.605Z,11.07
2023-03-18T14:39:18.386Z,18.05
2023-03-18T14:41:48.691Z,10.00
2023-03-18T14:44:21.869Z,14.32
2023-03-18T14:46:52.653Z,15.80
2023-03-18T14:49:35.462Z,14.55
2023-03-18T14:52:05.690Z,14.88
2023-03-18T14:54:37.567Z,13.10
2023-03-18T14:57:06.257Z,17.97
2023-03-18T14:59:36.112Z,14.90
2023-03-18T15:02:07.343Z,15.00
2023-03-18T15:04:36.337Z,17.38
2023-03-18T15:07:07.256Z,13.80
2023-03-18T15:09:37.825Z,18.23
2023-03-18T15:12:18.910Z,15.43
2023-03-18T15:14:48.822Z,13.40
2023-03-18T15:17:18.055Z,12.35
2023-03-18T15:19:47.458Z,11.15
2023-03-18T15:22:21.047Z,11.40
2023-03-18T15:24:49.509Z,11.60
2023-03-18T15:27:21.997Z,11.82
2023-03-18T15:29:54.647Z,12.52
2023-03-18T15:32:26.540Z,12.82
2023-03-18T15:34:56.286Z,17.83
2023-03-18T15:37:34.872Z,17.00
2023-03-18T15:40:18.229Z,16.08
2023-03-18T15:42:47.639Z,17.92
2023-03-18T15:45:23.331Z,14.57
2023-03-18T15:47:52.108Z,14.75
2023-03-18T15:50:26.831Z,15.45
2023-03-18T15:53:09.574Z,13.82
2023-03-18T15:55:49.176Z,12.38
2023-03-18T15:58:21.423Z,17.45
2023-03-18T16:00:53.142Z,18.50
2023-03-18T16:03:23.958Z,19.15
2023-03-18T16:05:53.867Z,13.30
2023-03-18T16:08:23.148Z,10.57
2023-03-18T16:10:53.094Z,13.30
2023-03-18T16:13:24.609Z,11.85
2023-03-18T16:15:56.096Z,18.98
2023-03-18T16:18:24.753Z,14.85
2023-03-18T16:20:54.196Z,19.90
2023-03-18T16:23:23.147Z,14.77
2023-03-18T16:25:53.185Z,15.50
2023-03-18T16:28:22.725Z,14.02
2023-03-18T16:30:53.437Z,33.47
2023-03-18T16:33:26.052Z,20.85
2023-03-18T16:35:56.676Z,16.98
2023-03-18T16:38:25.570Z,21.58
2023-03-18T16:40:57.742Z,16.00
2023-03-18T16:43:29.782Z,15.95
2023-03-18T16:46:00.396Z,14.43
2023-03-18T16:48:30.745Z,14.98
2023-03-18T16:51:02.445Z,13.88
2023-03-18T16:53:32.160Z,12.23
2023-03-18T16:56:02.461Z,18.60
2023-03-18T16:58:33.027Z,26.50
2023-03-18T17:01:01.702Z,14.88
2023-03-18T17:03:34.636Z,15.65
2023-03-18T17:06:03.674Z,15.85
2023-03-18T17:08:32.445Z,13.52
2023-03-18T17:11:03.663Z,20.55
2023-03-18T17:13:33.124Z,17.08
2023-03-18T17:16:01.671Z,18.67
2023-03-18T17:18:33.385Z,26.60
2023-03-18T17:21:05.290Z,22.17
2023-03-18T17:23:34.326Z,20.73
2023-03-18T17:26:04.672Z,25.30
2023-03-18T17:28:35.449Z,22.63
2023-03-18T17:31:04.262Z,26.00
2023-03-18T17:33:33.760Z,26.23
2023-03-18T17:36:03.896Z,20.42
2023-03-18T17:38:35.713Z,20.23
2023-03-18T17:41:05.655Z,19.88
2023-03-18T17:43:35.646Z,24.17
2023-03-18T17:46:05.157Z,19.58
2023-03-18T17:48:34.979Z,28.15
2023-03-18T17:51:09.042Z,26.65
2023-03-18T17:53:40.801Z,25.63
2023-03-18T17:56:13.957Z,28.42
2023-03-18T17:58:44.329Z,28.15
2023-03-18T18:01:15.434Z,29.02
2023-03-18T18:03:45.057Z,27.40
2023-03-18T18:06:18.292Z,31.13
2023-03-18T18:08:47.410Z,28.67
2023-03-18T18:11:19.503Z,37.03
2023-03-18T18:13:48.677Z,31.73
2023-03-18T18:16:17.748Z,34.10
2023-03-18T18:18:49.071Z,34.50
2023-03-18T18:21:21.356Z,31.37
2023-03-18T18:23:50.049Z,35.17
2023-03-18T18:26:19.930Z,35.83
2023-03-18T18:28:58.123Z,34.88
2023-03-18T18:31:29.810Z,34.40
2023-03-18T18:33:58.223Z,36.20
2023-03-18T18:36:28.796Z,31.15
2023-03-18T18:38:57.695Z,31.08
2023-03-18T18:41:27.251Z,29.35
2023-03-18T18:43:56.594Z,30.38
2023-03-18T18:46:26.677Z,42.40
2023-03-18T18:48:55.885Z,42.33
2023-03-18T18:51:25.009Z,49.65
2023-03-18T18:53:56.273Z,42.15
2023-03-18T18:56:26.618Z,35.85
2023-03-18T18:58:55.936Z,34.33
2023-03-18T19:01:24.395Z,31.27
2023-03-18T19:03:53.662Z,36.65
2023-03-18T19:06:27.918Z,36.53
2023-03-18T19:08:58.449Z,33.92
2023-03-18T19:11:27.290Z,28.88
2023-03-18T19:14:14.276Z,29.77
2023-03-18T19:16:43.393Z,32.33
2023-03-18T19:19:15.016Z,30.20
2023-03-18T19:21:44.809Z,25.98
2023-03-18T19:24:31.027Z,28.27
2023-03-18T19:27:02.518Z,23.08
2023-03-18T19:29:32.555Z,24.27
2023-03-18T19:32:02.308Z,22.38
2023-03-18T19:34:34.003Z,31.42
2023-03-18T19:37:05.768Z,30.15
2023-03-18T19:39:34.431Z,24.50
2023-03-18T19:42:04.640Z,29.08
2023-03-18T19:44:33.174Z,23.60
2023-03-18T19:47:02.922Z,23.77
2023-03-18T19:49:35.070Z,26.92
2023-03-18T19:52:04.763Z,27.17
2023-03-18T19:54:34.937Z,29.65
2023-03-18T19:57:08.598Z,28.65
2023-03-18T19:59:39.675Z,30.35
2023-03-18T20:02:18.516Z,32.53
2023-03-18T20:04:49.462Z,28.13
2023-03-18T20:07:18.895Z,24.88
2023-03-18T20:09:50.400Z,24.63
2023-03-18T20:12:26.059Z,25.58
2023-03-18T20:14:58.046Z,26.48
2023-03-18T20:17:30.568Z,26.83
2023-03-18T20:19:59.413Z,33.75
2023-03-18T20:22:29.458Z,29.67
2023-03-18T20:24:58.277Z,25.17
2023-03-18T20:27:30.327Z,27.80
2023-03-18T20:29:59.473Z,24.63
2023-03-18T20:32:31.176Z,24.73
2023-03-18T20:35:03.395Z,23.30
2023-03-18T20:37:34.691Z,19.90
2023-03-18T20:40:04.064Z,26.27
2023-03-18T20:42:36.687Z,24.67
2023-03-18T20:45:06.527Z,25.38
2023-03-18T20:47:35.116Z,22.73
2023-03-18T20:50:04.549Z,23.67
2023-03-18T20:52:33.133Z,23.60
2023-03-18T20:55:02.079Z,26.30
2023-03-18T20:57:31.175Z,20.17
2023-03-18T21:00:01.229Z,24.85
2023-03-18T21:02:33.644Z,19.77
2023-03-18T21:05:03.121Z,22.63
2023-03-18T21:07:32.036Z,19.95
2023-03-18T21:10:01.009Z,22.77
2023-03-18T21:12:29.720Z,21.02
2023-03-18T21:14:58.228Z,21.60
2023-03-18T21:17:29.051Z,23.10
2023-03-18T21:20:07.918Z,20.65
2023-03-18T21:22:39.800Z,19.70
2023-03-18T21:25:09.246Z,21.02
2023-03-18T21:27:38.184Z,21.23
2023-03-18T21:30:09.594Z,22.23
2023-03-18T21:32:40.164Z,22.13
2023-03-18T21:35:09.719Z,24.55
2023-03-18T21:37:38.306Z,21.65
2023-03-18T21:40:07.869Z,22.33
2023-03-18T21:42:36.709Z,23.17
2023-03-18T21:45:05.539Z,33.10
2023-03-18T21:47:34.386Z,30.40
2023-03-18T21:50:04.403Z,28.50
2023-03-18T21:52:33.687Z,20.27
2023-03-18T21:55:03.610Z,20.88
2023-03-18T21:57:32.207Z,24.50
2023-03-18T22:00:00.818Z,23.38
2023-03-18T22:02:33.482Z,29.15
2023-03-18T22:05:03.010Z,25.63
2023-03-18T22:07:33.451Z,24.27
2023-03-18T22:10:01.986Z,28.60
2023-03-18T22:12:31.231Z,26.48
2023-03-18T22:15:00.110Z,27.48
2023-03-18T22:17:29.621Z,26.55
2023-03-18T22:19:58.820Z,26.88
2023-03-18T22:22:29.353Z,24.58
2023-03-18T22:24:59.370Z,25.60
2023-03-18T22:27:29.039Z,22.35
2023-03-18T22:29:58.180Z,23.77
2023-03-18T22:32:37.227Z,21.60
2023-03-18T22:35:06.349Z,25.17
2023-03-18T22:37:35.050Z,24.10
2023-03-18T22:40:05.587Z,22.83
2023-03-18T22:42:34.387Z,22.50
2023-03-18T22:45:03.285Z,20.80
2023-03-18T22:47:31.973Z,27.52
2023-03-18T22:50:00.937Z,26.33
2023-03-18T22:52:31.228Z,28.70
2023-03-18T22:55:00.556Z,28.88
2023-03-18T22:57:30.944Z,27.35
2023-03-18T22:59:59.387Z,26.77
2023-03-18T23:02:29.061Z,23.83
2023-03-18T23:04:57.680Z,27.73
2023-03-18T23:07:27.968Z,29.23
2023-03-18T23:09:57.390Z,26.50
2023-03-18T23:12:27.575Z,20.50
2023-03-18T23:14:58.280Z,22.05
2023-03-18T23:17:28.187Z,25.52
2023-03-18T23:19:56.795Z,27.75
2023-03-18T23:22:37.255Z,27.38
2023-03-18T23:25:06.991Z,26.08
2023-03-18T23:27:36.140Z,24.60
2023-03-18T23:30:06.900Z,27.13
2023-03-18T23:32:36.116Z,22.27
2023-03-18T23:35:04.903Z,23.05
2023-03-18T23:37:35.775Z,30.70
2023-03-18T23:40:05.290Z,26.35
2023-03-18T23:42:33.937Z,22.88
2023-03-18T23:45:04.033Z,19.42
2023-03-18T23:47:33.986Z,24.25
2023-03-18T23:50:02.764Z,22.30
2023-03-18T23:52:33.145Z,26.23
2023-03-18T23:55:01.988Z,21.95
2023-03-18T23:57:30.647Z,25.75
2023-03-18T23:59:59.494Z,21.77
